Time;durP1;ratioP1;P1;durP2;ratioP2;P2;SDS_P1;SDS_P2;PMS_P1;PMS_P2;Temp;Humidity;BMP_temperature;BMP_pressure;BME280_temperature;BME280_humidity;BME280_pressure;Samples;Min_cycle;Max_cycle;Signal;HPM_P1;HPM_P2
2023/04/25 00:01:38;;;;;;;15.88;4.20;;;8.90;99.90;;;;;;4971943;28;20135;-77
2023/04/25 00:04:07;;;;;;;14.25;3.95;;;8.90;99.90;;;;;;4972233;28;20023;-77
2023/04/25 00:06:36;;;;;;;22.20;4.93;;;8.90;99.90;;;;;;4960128;28;20031;-78
2023/04/25 00:09:07;;;;;;;16.05;4.82;;;8.90;99.90;;;;;;4965894;28;20053;-78
2023/04/25 00:11:39;;;;;;;15.85;4.10;;;8.80;99.90;;;;;;4961800;29;20024;-78
2023/04/25 00:14:06;;;;;;;16.83;4.82;;;8.80;99.90;;;;;;4976862;28;20027;-81
2023/04/25 00:16:34;;;;;;;17.65;5.57;;;8.70;99.90;;;;;;4957520;29;20031;-78
2023/04/25 00:19:02;;;;;;;16.67;4.45;;;8.70;99.90;;;;;;4973317;28;20077;-77
2023/04/25 00:21:28;;;;;;;22.92;5.78;;;8.70;99.90;;;;;;4973720;28;20019;-77
2023/04/25 00:23:55;;;;;;;16.33;4.32;;;8.70;99.90;;;;;;4968931;28;20454;-77
2023/04/25 00:26:21;;;;;;;22.60;4.97;;;8.60;99.90;;;;;;4975481;28;20366;-80
2023/04/25 00:28:47;;;;;;;16.88;4.70;;;8.60;99.90;;;;;;4973998;28;20035;-79
2023/04/25 00:31:13;;;;;;;17.42;5.47;;;8.70;99.90;;;;;;4974170;28;20023;-78
2023/04/25 00:33:39;;;;;;;19.98;5.00;;;8.60;99.90;;;;;;4975160;28;20057;-79
2023/04/25 00:36:05;;;;;;;22.23;5.82;;;8.60;99.90;;;;;;4974970;28;20022;-79
2023/04/25 00:38:31;;;;;;;16.50;4.30;;;8.60;99.90;;;;;;4974521;28;20039;-78
2023/04/25 00:40:57;;;;;;;14.68;4.63;;;8.60;99.90;;;;;;4973772;28;20038;-78
2023/04/25 00:43:27;;;;;;;20.50;5.75;;;8.60;99.90;;;;;;4974306;28;20085;-79
2023/04/25 00:45:53;;;;;;;22.33;5.80;;;8.60;99.90;;;;;;4957718;28;20389;-79
2023/04/25 00:48:21;;;;;;;22.67;6.63;;;8.60;99.90;;;;;;4974921;28;20026;-79
2023/04/25 00:50:55;;;;;;;17.02;5.20;;;8.50;99.90;;;;;;4956780;28;20023;-81
2023/04/25 00:53:22;;;;;;;13.65;4.72;;;8.50;99.90;;;;;;4980491;28;20019;-78
2023/04/25 00:55:53;;;;;;;19.15;6.15;;;8.60;99.90;;;;;;4964131;28;20396;-78
2023/04/25 00:58:21;;;;;;;16.30;5.65;;;8.60;99.90;;;;;;4976693;28;20043;-80
2023/04/25 01:00:49;;;;;;;18.50;5.38;;;8.60;99.90;;;;;;4973084;28;20034;-80
2023/04/25 01:03:19;;;;;;;22.38;5.65;;;8.60;99.90;;;;;;4975706;28;20037;-79
2023/04/25 01:05:44;;;;;;;15.27;5.87;;;8.60;99.90;;;;;;4956188;28;20880;-79
2023/04/25 01:08:10;;;;;;;18.67;5.38;;;8.60;99.90;;;;;;4971039;28;20282;-80
2023/04/25 01:10:36;;;;;;;21.95;6.07;;;8.60;99.90;;;;;;4963613;28;20073;-79
2023/04/25 01:13:03;;;;;;;26.90;7.63;;;8.50;99.90;;;;;;4968229;28;20348;-79
2023/04/25 01:15:29;;;;;;;18.80;5.45;;;8.50;99.90;;;;;;4970267;28;20031;-79
2023/04/25 01:17:55;;;;;;;21.42;6.47;;;8.50;99.90;;;;;;4973689;28;20373;-77
2023/04/25 01:20:23;;;;;;;18.85;5.63;;;8.40;99.90;;;;;;4975759;28;20027;-78
2023/04/25 01:22:52;;;;;;;21.27;6.38;;;8.40;99.90;;;;;;4975075;28;20031;-78
2023/04/25 01:25:18;;;;;;;19.73;6.00;;;8.40;99.90;;;;;;4973221;28;20111;-78
2023/04/25 01:27:44;;;;;;;20.20;7.32;;;8.40;99.90;;;;;;4969591;28;20528;-79
2023/04/25 01:30:11;;;;;;;21.52;6.53;;;8.40;99.90;;;;;;4974101;28;20042;-78
2023/04/25 01:32:39;;;;;;;20.50;6.80;;;8.40;99.90;;;;;;4967172;28;20054;-79
2023/04/25 01:35:09;;;;;;;21.63;7.85;;;8.30;99.90;;;;;;4974417;28;20018;-79
2023/04/25 01:37:45;;;;;;;23.77;6.45;;;8.30;99.90;;;;;;4973936;28;20018;-78
2023/04/25 01:40:12;;;;;;;22.63;6.47;;;8.30;99.90;;;;;;4958541;28;20022;-79
2023/04/25 01:42:40;;;;;;;23.42;7.13;;;8.30;99.90;;;;;;4962822;28;20034;-78
2023/04/25 01:45:07;;;;;;;26.80;7.15;;;8.30;99.90;;;;;;4969582;28;21242;-78
2023/04/25 01:47:35;;;;;;;18.60;7.22;;;8.30;99.90;;;;;;4960095;28;20507;-79
2023/04/25 01:50:01;;;;;;;22.50;6.55;;;8.30;99.90;;;;;;4964694;28;20019;-78
2023/04/25 01:52:27;;;;;;;19.20;6.35;;;8.30;99.90;;;;;;4963694;28;20030;-77
2023/04/25 01:54:54;;;;;;;22.58;6.07;;;8.30;99.90;;;;;;4958812;28;20381;-79
2023/04/25 01:57:20;;;;;;;23.30;6.78;;;8.30;99.90;;;;;;4971552;28;20384;-77
2023/04/25 01:59:46;;;;;;;29.40;6.45;;;8.40;99.90;;;;;;4974140;28;20049;-79
2023/04/25 02:02:12;;;;;;;26.27;7.90;;;8.40;99.90;;;;;;4952957;28;20041;-77
2023/04/25 02:04:37;;;;;;;24.90;7.55;;;8.40;99.90;;;;;;4961577;28;20023;-76
2023/04/25 02:07:04;;;;;;;21.80;7.53;;;8.40;99.90;;;;;;4964914;28;20493;-78
2023/04/25 02:09:34;;;;;;;21.77;6.10;;;8.40;99.90;;;;;;4959546;28;20054;-79
2023/04/25 02:12:01;;;;;;;21.63;6.15;;;8.40;99.90;;;;;;4972665;28;20389;-79
2023/04/25 02:14:28;;;;;;;24.55;6.57;;;8.40;99.90;;;;;;4948265;29;20019;-79
2023/04/25 02:16:54;;;;;;;27.25;7.05;;;8.40;99.90;;;;;;4971383;28;20026;-78
2023/04/25 02:19:19;;;;;;;30.08;7.03;;;8.40;99.90;;;;;;4964300;28;20106;-79
2023/04/25 02:21:45;;;;;;;25.23;8.23;;;8.30;99.90;;;;;;4962951;28;20031;-78
2023/04/25 02:24:11;;;;;;;30.50;7.15;;;8.30;99.90;;;;;;4974196;28;20023;-78
2023/04/25 02:26:38;;;;;;;25.38;6.38;;;8.30;99.90;;;;;;4957904;28;20027;-78
2023/04/25 02:29:04;;;;;;;21.52;5.60;;;8.30;99.90;;;;;;4975294;28;20038;-78
2023/04/25 02:31:30;;;;;;;24.40;6.88;;;8.20;99.90;;;;;;4976231;28;20022;-78
2023/04/25 02:33:55;;;;;;;21.88;6.57;;;8.20;99.90;;;;;;4966952;28;20105;-77
2023/04/25 02:36:21;;;;;;;26.25;5.97;;;8.20;99.90;;;;;;4942160;28;20481;-78
2023/04/25 02:38:47;;;;;;;19.80;6.55;;;8.20;99.90;;;;;;4975986;28;20031;-78
2023/04/25 02:41:12;;;;;;;22.33;5.97;;;8.20;99.90;;;;;;4974779;28;20042;-78
2023/04/25 02:43:38;;;;;;;20.50;6.05;;;8.10;99.90;;;;;;4974900;28;20014;-77
2023/04/25 02:46:03;;;;;;;22.33;5.60;;;8.10;99.90;;;;;;4959975;28;20033;-79
2023/04/25 02:48:43;;;;;;;21.35;6.68;;;8.10;99.90;;;;;;4969791;28;20031;-79
2023/04/25 02:51:11;;;;;;;23.13;6.63;;;8.00;99.90;;;;;;4946914;29;20031;-78
2023/04/25 02:53:42;;;;;;;20.58;5.57;;;8.00;99.90;;;;;;4971363;28;20784;-79
2023/04/25 02:56:11;;;;;;;26.33;6.05;;;8.00;99.90;;;;;;4982240;28;20030;-79
2023/04/25 02:58:37;;;;;;;24.42;5.95;;;7.90;99.90;;;;;;4978492;28;20398;-77
2023/04/25 03:01:02;;;;;;;19.98;5.38;;;7.90;99.90;;;;;;4978520;28;20039;-78
2023/04/25 03:03:29;;;;;;;19.10;5.57;;;7.90;99.90;;;;;;4974631;28;20086;-79
2023/04/25 03:05:55;;;;;;;20.55;6.82;;;7.90;99.90;;;;;;4972478;28;20073;-80
2023/04/25 03:08:20;;;;;;;23.33;5.03;;;7.90;99.90;;;;;;4977892;28;20046;-78
2023/04/25 03:10:46;;;;;;;21.02;6.13;;;7.90;99.90;;;;;;4978293;28;20029;-78
2023/04/25 03:13:11;;;;;;;18.92;5.95;;;7.90;99.90;;;;;;4975323;28;20074;-80
2023/04/25 03:15:39;;;;;;;19.38;6.28;;;7.90;99.90;;;;;;4974313;28;20062;-78
2023/04/25 03:18:04;;;;;;;20.65;5.65;;;7.80;99.90;;;;;;4979127;28;20071;-79
2023/04/25 03:20:35;;;;;;;25.50;5.03;;;7.80;99.90;;;;;;4959517;28;20881;-78
2023/04/25 03:23:01;;;;;;;23.50;4.78;;;7.80;99.90;;;;;;4972261;28;20113;-79
2023/04/25 03:25:27;;;;;;;22.42;5.72;;;7.70;99.90;;;;;;4974404;28;20098;-79
2023/04/25 03:27:52;;;;;;;22.73;5.82;;;7.70;99.90;;;;;;4957257;28;20555;-78
2023/04/25 03:30:19;;;;;;;14.82;5.88;;;7.70;99.80;;;;;;4963879;28;20019;-79
2023/04/25 03:32:45;;;;;;;20.55;6.38;;;7.70;99.80;;;;;;4972977;28;20082;-78
2023/04/25 03:35:10;;;;;;;20.67;5.82;;;7.70;99.80;;;;;;4952043;28;20057;-78
2023/04/25 03:37:36;;;;;;;20.38;5.20;;;7.70;99.80;;;;;;4964608;28;20023;-79
2023/04/25 03:40:02;;;;;;;26.13;5.45;;;7.70;99.80;;;;;;4973612;28;20103;-77
2023/04/25 03:42:27;;;;;;;27.08;6.47;;;7.70;99.80;;;;;;4963954;28;20019;-79
2023/04/25 03:44:53;;;;;;;24.83;6.28;;;7.70;99.80;;;;;;4963937;28;20508;-79
2023/04/25 03:47:19;;;;;;;25.10;6.03;;;7.70;99.70;;;;;;4955474;28;20046;-77
2023/04/25 03:49:45;;;;;;;21.42;5.78;;;7.70;99.90;;;;;;4972165;28;20022;-77
2023/04/25 03:52:10;;;;;;;20.75;5.07;;;7.70;99.80;;;;;;4974189;28;20023;-77
2023/04/25 03:54:36;;;;;;;22.45;5.88;;;7.70;99.80;;;;;;4972692;28;20022;-77
2023/04/25 03:57:02;;;;;;;16.45;4.85;;;7.70;99.90;;;;;;4973555;28;20113;-77
2023/04/25 03:59:28;;;;;;;26.35;6.57;;;7.70;99.80;;;;;;4972323;28;20035;-79
2023/04/25 04:01:54;;;;;;;23.48;6.85;;;7.70;99.70;;;;;;4970177;28;20177;-77
2023/04/25 04:04:19;;;;;;;22.02;5.75;;;7.70;99.70;;;;;;4970829;28;20019;-76
2023/04/25 04:06:45;;;;;;;15.77;5.05;;;7.60;99.60;;;;;;4965527;28;20041;-78
2023/04/25 04:09:12;;;;;;;22.65;5.57;;;7.60;99.70;;;;;;4959019;28;20051;-78
2023/04/25 04:11:38;;;;;;;24.20;7.45;;;7.60;99.60;;;;;;4963567;28;20023;-78
2023/04/25 04:14:06;;;;;;;17.73;5.50;;;7.60;99.60;;;;;;4965075;28;20074;-77
2023/04/25 04:16:33;;;;;;;16.85;5.40;;;7.60;99.60;;;;;;4965856;28;20023;-77
2023/04/25 04:18:58;;;;;;;16.38;5.28;;;7.60;99.60;;;;;;4972217;28;20030;-77
2023/04/25 04:21:24;;;;;;;17.40;5.28;;;7.50;99.60;;;;;;4970848;28;20396;-77
2023/04/25 04:23:50;;;;;;;18.52;5.47;;;7.50;99.60;;;;;;4965329;28;20477;-76
2023/04/25 04:26:16;;;;;;;21.30;5.68;;;7.50;99.60;;;;;;4966828;28;20026;-77
2023/04/25 04:28:46;;;;;;;20.42;5.40;;;7.40;99.60;;;;;;4972171;28;20544;-78
2023/04/25 04:31:12;;;;;;;15.38;5.55;;;7.40;99.60;;;;;;4974254;28;20340;-79
2023/04/25 04:33:39;;;;;;;21.25;5.88;;;7.30;99.70;;;;;;4948387;28;20487;-79
2023/04/25 04:36:07;;;;;;;19.55;5.45;;;7.20;99.80;;;;;;4971806;28;20031;-79
2023/04/25 04:38:36;;;;;;;20.58;6.38;;;7.20;99.80;;;;;;4976662;28;20019;-79
2023/04/25 04:41:03;;;;;;;23.27;6.00;;;7.30;99.90;;;;;;4961154;28;20355;-77
2023/04/25 04:43:29;;;;;;;20.17;5.30;;;7.30;99.90;;;;;;4972153;28;20038;-77
2023/04/25 04:45:58;;;;;;;21.52;6.22;;;7.20;99.90;;;;;;4971193;28;20035;-79
2023/04/25 04:48:24;;;;;;;18.25;5.78;;;7.20;99.90;;;;;;4967613;28;20034;-78
2023/04/25 04:50:50;;;;;;;22.67;5.60;;;7.30;99.90;;;;;;4970410;28;20023;-76
2023/04/25 04:53:15;;;;;;;24.95;6.00;;;7.20;99.90;;;;;;4965932;28;20520;-78
2023/04/25 04:55:47;;;;;;;21.08;6.20;;;7.30;99.90;;;;;;4969487;28;20066;-77
2023/04/25 04:58:13;;;;;;;21.98;5.95;;;7.20;99.90;;;;;;4968442;28;20034;-77
2023/04/25 05:00:38;;;;;;;20.15;5.65;;;7.30;99.90;;;;;;4969043;28;20034;-79
2023/04/25 05:03:05;;;;;;;18.33;5.95;;;7.30;99.90;;;;;;4966416;28;20347;-78
2023/04/25 05:05:31;;;;;;;21.20;6.07;;;7.30;99.90;;;;;;4957772;28;20034;-77
2023/04/25 05:07:56;;;;;;;18.45;5.55;;;7.40;99.90;;;;;;4971965;28;20030;-79
2023/04/25 05:10:25;;;;;;;22.85;6.43;;;7.40;99.90;;;;;;4972905;28;20206;-77
2023/04/25 05:12:51;;;;;;;17.20;6.45;;;7.50;99.90;;;;;;4963706;28;20051;-79
2023/04/25 05:15:18;;;;;;;16.25;5.28;;;7.50;99.90;;;;;;4973140;28;20050;-77
2023/04/25 05:17:44;;;;;;;21.83;5.68;;;7.50;99.90;;;;;;4960264;28;20026;-77
2023/04/25 05:20:11;;;;;;;19.85;6.60;;;7.50;99.90;;;;;;4969299;28;20015;-79
2023/04/25 05:22:37;;;;;;;16.67;5.68;;;7.50;99.90;;;;;;4970202;28;20027;-78
2023/04/25 05:25:05;;;;;;;14.02;4.78;;;7.60;99.90;;;;;;4968516;28;20096;-79
2023/04/25 05:27:30;;;;;;;16.75;5.78;;;7.60;99.90;;;;;;4971248;28;20535;-77
2023/04/25 05:29:56;;;;;;;23.83;6.78;;;7.70;99.90;;;;;;4972414;28;20027;-78
2023/04/25 05:32:22;;;;;;;28.40;7.32;;;7.70;99.90;;;;;;4970251;28;20042;-77
2023/04/25 05:34:47;;;;;;;19.40;6.40;;;7.80;99.90;;;;;;4970957;28;20019;-77
2023/04/25 05:37:14;;;;;;;19.20;5.03;;;7.80;99.90;;;;;;4972518;28;20154;-79
2023/04/25 05:39:40;;;;;;;18.23;5.38;;;7.90;99.90;;;;;;4975433;28;20027;-79
2023/04/25 05:42:05;;;;;;;23.15;6.60;;;7.90;99.70;;;;;;4961058;28;20046;-79
2023/04/25 05:44:31;;;;;;;16.92;5.10;;;8.00;99.70;;;;;;4978979;28;20082;-78
2023/04/25 05:46:57;;;;;;;16.40;6.25;;;8.00;99.60;;;;;;4980809;28;20436;-78
2023/04/25 05:49:23;;;;;;;21.52;6.20;;;8.00;99.50;;;;;;4977961;28;20035;-78
2023/04/25 05:51:49;;;;;;;18.60;5.05;;;8.10;99.50;;;;;;4973540;28;20038;-81
2023/04/25 05:54:16;;;;;;;13.68;6.20;;;8.10;99.40;;;;;;4972006;28;20019;-80
2023/04/25 05:56:41;;;;;;;17.50;5.13;;;8.20;99.30;;;;;;4969207;28;20035;-80
2023/04/25 05:59:07;;;;;;;20.95;5.13;;;8.20;99.10;;;;;;4964729;28;20050;-76
2023/04/25 06:01:33;;;;;;;18.98;6.20;;;8.30;99.00;;;;;;4965931;28;20027;-80
2023/04/25 06:03:58;;;;;;;15.13;4.68;;;8.60;99.80;;;;;;4963277;28;20134;-80
2023/04/25 06:06:24;;;;;;;14.50;4.35;;;8.80;98.90;;;;;;4968331;28;20051;-80
2023/04/25 06:08:50;;;;;;;15.15;4.45;;;8.90;98.40;;;;;;4968003;28;20031;-80
2023/04/25 06:11:15;;;;;;;13.35;4.18;;;8.80;98.40;;;;;;4969858;28;20023;-80
2023/04/25 06:13:41;;;;;;;18.55;5.68;;;8.80;98.50;;;;;;4971753;28;20122;-79
2023/04/25 06:16:07;;;;;;;19.52;5.20;;;8.80;98.50;;;;;;4967818;28;20027;-78
2023/04/25 06:18:33;;;;;;;19.05;5.28;;;8.80;98.30;;;;;;4966582;28;20497;-79
2023/04/25 06:20:58;;;;;;;15.85;4.30;;;8.80;98.30;;;;;;4967059;28;20027;-80
2023/04/25 06:23:24;;;;;;;18.33;5.32;;;8.80;98.30;;;;;;4953570;28;20089;-78
2023/04/25 06:25:49;;;;;;;18.15;5.30;;;8.90;98.40;;;;;;4961515;28;20039;-80
2023/04/25 06:28:15;;;;;;;16.20;4.50;;;9.00;98.30;;;;;;4939789;28;20035;-78
2023/04/25 06:30:42;;;;;;;11.70;4.82;;;9.00;98.20;;;;;;4958779;28;20031;-79
2023/04/25 06:33:08;;;;;;;17.73;4.30;;;9.00;98.20;;;;;;4968496;28;20085;-80
2023/04/25 06:35:34;;;;;;;15.30;5.57;;;9.00;98.20;;;;;;4947257;28;20015;-81
2023/04/25 06:38:00;;;;;;;14.18;4.60;;;9.10;98.20;;;;;;4952755;28;20022;-80
2023/04/25 06:40:26;;;;;;;12.57;5.03;;;9.20;98.00;;;;;;4970559;28;20416;-81
2023/04/25 06:42:51;;;;;;;9.10;3.13;;;9.20;97.70;;;;;;4970896;28;20031;-81
2023/04/25 06:45:17;;;;;;;13.68;3.65;;;9.20;97.80;;;;;;4972317;28;20106;-84
2023/04/25 06:47:44;;;;;;;13.65;4.43;;;9.30;98.20;;;;;;4976551;28;20042;-83
2023/04/25 06:50:10;;;;;;;18.33;5.32;;;9.30;98.10;;;;;;4952943;28;20020;-81
2023/04/25 06:52:36;;;;;;;13.35;4.45;;;9.30;97.90;;;;;;4965556;28;20103;-81
2023/04/25 06:55:02;;;;;;;14.73;3.53;;;9.40;97.60;;;;;;4969226;28;20072;-80
2023/04/25 06:57:31;;;;;;;12.82;4.03;;;9.40;97.50;;;;;;4981172;28;20026;-81
2023/04/25 06:59:57;;;;;;;14.68;5.57;;;9.40;97.50;;;;;;4974406;28;20710;-82
2023/04/25 07:02:29;;;;;;;15.35;4.20;;;9.50;97.30;;;;;;4993606;28;20034;-81
2023/04/25 07:04:59;;;;;;;12.60;4.30;;;9.50;97.00;;;;;;4975478;28;20033;-82
2023/04/25 07:07:25;;;;;;;21.73;6.35;;;9.60;96.80;;;;;;4986983;28;20035;-83
2023/04/25 07:09:53;;;;;;;15.80;4.25;;;9.60;96.50;;;;;;4981514;28;20037;-81
2023/04/25 07:12:23;;;;;;;15.98;4.40;;;9.50;96.60;;;;;;4987216;28;20041;-80
2023/04/25 07:14:50;;;;;;;20.50;4.43;;;9.60;96.80;;;;;;4977986;28;20027;-81
2023/04/25 07:17:15;;;;;;;18.58;4.68;;;9.80;97.10;;;;;;4969010;28;20042;-81
2023/04/25 07:19:43;;;;;;;18.23;4.07;;;10.00;97.00;;;;;;4963567;28;20035;-75
2023/04/25 07:22:09;;;;;;;14.93;3.95;;;10.30;96.50;;;;;;4960666;28;20058;-78
2023/04/25 07:24:34;;;;;;;16.30;4.40;;;10.40;95.90;;;;;;4960875;28;20055;-80
2023/04/25 07:27:01;;;;;;;11.20;3.63;;;10.60;96.00;;;;;;4947311;28;20471;-78
2023/04/25 07:29:26;;;;;;;10.98;2.83;;;10.90;95.60;;;;;;4966193;28;20033;-79
2023/04/25 07:31:52;;;;;;;12.40;2.47;;;11.20;94.90;;;;;;4963324;28;20023;-78
2023/04/25 07:34:19;;;;;;;15.73;3.53;;;11.30;94.50;;;;;;4962621;28;20051;-79
2023/04/25 07:36:47;;;;;;;14.45;3.65;;;11.50;94.30;;;;;;4967129;28;20109;-81
2023/04/25 07:39:12;;;;;;;11.98;3.03;;;11.50;93.10;;;;;;4961849;28;20468;-79
2023/04/25 07:41:39;;;;;;;14.48;3.55;;;11.50;92.60;;;;;;4956867;28;20125;-79
2023/04/25 07:44:05;;;;;;;15.80;3.65;;;11.40;93.00;;;;;;4961118;28;20031;-79
2023/04/25 07:46:30;;;;;;;10.80;2.75;;;11.30;93.00;;;;;;4958424;28;20033;-79
2023/04/25 07:48:56;;;;;;;10.30;3.05;;;11.20;92.90;;;;;;4960872;28;20408;-78
2023/04/25 07:51:22;;;;;;;10.70;2.72;;;11.20;93.10;;;;;;4964572;28;20103;-77
2023/04/25 07:53:47;;;;;;;9.75;2.35;;;11.20;94.10;;;;;;4963396;28;20039;-78
2023/04/25 07:56:13;;;;;;;11.98;2.53;;;11.30;92.70;;;;;;4959108;28;20154;-79
2023/04/25 07:58:39;;;;;;;11.23;3.00;;;11.30;91.90;;;;;;4964442;28;20113;-77
2023/04/25 08:01:04;;;;;;;7.10;2.33;;;11.20;91.90;;;;;;4962512;28;20153;-78
2023/04/25 08:03:30;;;;;;;11.23;2.45;;;11.20;90.70;;;;;;4961577;28;20031;-77
2023/04/25 08:05:55;;;;;;;13.63;2.50;;;11.30;90.80;;;;;;4960232;28;20034;-77
2023/04/25 08:08:21;;;;;;;6.70;2.03;;;11.50;91.60;;;;;;4965534;28;20049;-78
2023/04/25 08:10:48;;;;;;;11.82;2.63;;;11.60;91.60;;;;;;4961628;28;20031;-77
2023/04/25 08:13:13;;;;;;;11.55;2.63;;;11.70;92.30;;;;;;4946147;28;20051;-78
2023/04/25 08:15:40;;;;;;;10.50;1.98;;;11.60;90.40;;;;;;4965260;28;20050;-78
2023/04/25 08:18:05;;;;;;;8.35;1.75;;;11.60;90.80;;;;;;4971899;28;20071;-76
2023/04/25 08:20:31;;;;;;;9.90;2.25;;;11.80;92.90;;;;;;4977891;28;20027;-77
2023/04/25 08:22:56;;;;;;;9.35;1.92;;;12.00;93.30;;;;;;4969545;28;20123;-77
2023/04/25 08:25:22;;;;;;;8.23;2.50;;;12.10;89.50;;;;;;4977832;28;20025;-77
2023/04/25 08:27:48;;;;;;;18.77;3.35;;;12.30;89.30;;;;;;4960728;28;20037;-77
2023/04/25 08:30:14;;;;;;;7.38;1.92;;;12.60;86.00;;;;;;4972658;28;20031;-77
2023/04/25 08:32:40;;;;;;;7.80;1.77;;;12.90;84.10;;;;;;4960883;28;20051;-77
2023/04/25 08:35:06;;;;;;;8.95;1.75;;;13.10;80.50;;;;;;4965208;28;20038;-77
2023/04/25 08:37:32;;;;;;;8.43;1.85;;;13.00;78.50;;;;;;4970876;28;20034;-77
2023/04/25 08:39:58;;;;;;;8.02;2.15;;;12.80;80.20;;;;;;4970119;28;20035;-79
2023/04/25 08:42:25;;;;;;;7.05;1.50;;;12.60;79.00;;;;;;4967742;28;20074;-77
2023/04/25 08:44:53;;;;;;;11.10;2.92;;;12.50;79.10;;;;;;4963075;28;20022;-79
2023/04/25 08:47:22;;;;;;;9.50;2.70;;;12.40;84.50;;;;;;4971612;28;20893;-78
2023/04/25 08:49:49;;;;;;;6.75;1.67;;;12.10;80.80;;;;;;4955079;28;20078;-79
2023/04/25 08:52:22;;;;;;;10.77;2.30;;;12.00;89.40;;;;;;4978789;28;20027;-78
2023/04/25 08:54:49;;;;;;;9.07;2.17;;;12.00;89.20;;;;;;4973472;28;20023;-79
2023/04/25 08:57:15;;;;;;;11.93;2.28;;;11.90;85.70;;;;;;4969657;28;20030;-79
2023/04/25 08:59:45;;;;;;;8.23;1.95;;;11.90;85.60;;;;;;4951521;28;20080;-79
2023/04/25 09:02:14;;;;;;;10.85;1.95;;;11.90;91.60;;;;;;4970101;28;20105;-79
2023/04/25 09:04:41;;;;;;;5.20;1.50;;;11.90;91.70;;;;;;4967003;28;20034;-78
2023/04/25 09:07:07;;;;;;;6.53;1.30;;;11.80;87.80;;;;;;4962988;28;20757;-78
2023/04/25 09:09:32;;;;;;;5.90;2.08;;;11.60;86.40;;;;;;4971332;28;20114;-79
2023/04/25 09:11:59;;;;;;;8.05;1.90;;;11.60;93.10;;;;;;4970910;28;20022;-77
2023/04/25 09:14:25;;;;;;;13.10;2.40;;;11.50;91.30;;;;;;4973519;28;20465;-80
2023/04/25 09:17:00;;;;;;;11.85;2.42;;;11.40;90.70;;;;;;4973471;28;20058;-77
2023/04/25 09:19:31;;;;;;;9.63;2.20;;;11.30;87.90;;;;;;4973835;28;20134;-78
2023/04/25 09:22:00;;;;;;;6.75;1.65;;;11.20;88.80;;;;;;4968440;28;20045;-78
2023/04/25 09:24:37;;;;;;;10.38;2.10;;;11.10;88.90;;;;;;4970221;28;20480;-80
2023/04/25 09:27:07;;;;;;;10.07;2.33;;;11.10;89.50;;;;;;4956957;28;20043;-79
2023/04/25 09:29:37;;;;;;;12.90;2.67;;;11.10;88.30;;;;;;4962896;28;20058;-80
2023/04/25 09:32:15;;;;;;;5.75;1.25;;;11.00;87.40;;;;;;4968168;28;20039;-79
2023/04/25 09:34:48;;;;;;;5.68;1.30;;;11.00;90.40;;;;;;4973241;28;20516;-77
2023/04/25 09:37:23;;;;;;;11.73;2.13;;;10.90;87.10;;;;;;4969208;28;20485;-78
2023/04/25 09:39:53;;;;;;;9.75;1.80;;;10.80;85.10;;;;;;4960738;28;20118;-79
2023/04/25 09:42:26;;;;;;;11.68;1.80;;;10.70;86.20;;;;;;4970781;28;20548;-77
2023/04/25 09:44:55;;;;;;;6.68;1.67;;;11.00;87.10;;;;;;4960312;28;20035;-78
2023/04/25 09:47:25;;;;;;;11.25;1.95;;;11.40;84.00;;;;;;4969305;28;20031;-79
2023/04/25 09:49:52;;;;;;;8.55;1.75;;;11.90;85.00;;;;;;4969587;28;20372;-78
2023/04/25 09:52:19;;;;;;;7.47;1.55;;;12.40;85.70;;;;;;4969754;28;20015;-79
2023/04/25 09:54:46;;;;;;;8.57;1.92;;;12.80;79.70;;;;;;4971543;28;20803;-79
2023/04/25 09:57:19;;;;;;;5.50;1.60;;;13.10;78.30;;;;;;4970793;28;20050;-79
2023/04/25 09:59:46;;;;;;;10.88;1.60;;;13.40;81.60;;;;;;4971079;28;20049;-80
2023/04/25 10:02:14;;;;;;;3.53;1.02;;;13.70;73.10;;;;;;4968189;28;20102;-78
2023/04/25 10:04:41;;;;;;;9.63;1.80;;;13.90;81.60;;;;;;4946147;28;20019;-78
2023/04/25 10:07:08;;;;;;;6.90;1.52;;;14.10;79.20;;;;;;4958758;28;20130;-79
2023/04/25 10:09:39;;;;;;;6.60;1.55;;;14.20;80.80;;;;;;4969812;28;20056;-78
2023/04/25 10:12:07;;;;;;;7.47;1.95;;;14.10;76.70;;;;;;4968864;28;20058;-77
2023/04/25 10:14:33;;;;;;;6.80;1.33;;;14.00;72.70;;;;;;4968084;28;20069;-77
2023/04/25 10:17:01;;;;;;;5.97;1.50;;;13.80;73.10;;;;;;4956322;28;20024;-80
2023/04/25 10:19:27;;;;;;;6.47;1.30;;;13.50;71.80;;;;;;4961025;28;20042;-80
2023/04/25 10:22:12;;;;;;;9.35;1.48;;;13.10;74.60;;;;;;4959456;28;20486;-79
2023/04/25 10:24:39;;;;;;;9.10;1.40;;;12.90;73.00;;;;;;4968725;28;20074;-79
2023/04/25 10:27:06;;;;;;;7.35;1.55;;;12.70;73.70;;;;;;4953898;28;20050;-79
2023/04/25 10:29:31;;;;;;;8.70;1.67;;;12.80;71.70;;;;;;4960882;28;20019;-78
2023/04/25 10:31:57;;;;;;;12.18;2.65;;;12.90;70.60;;;;;;4954285;28;20038;-78
2023/04/25 10:34:41;;;;;;;5.30;1.40;;;13.00;73.80;;;;;;4968144;28;20034;-79
2023/04/25 10:37:10;;;;;;;5.03;1.38;;;13.00;75.30;;;;;;4956118;28;20054;-81
2023/04/25 10:39:38;;;;;;;8.93;1.52;;;12.90;74.10;;;;;;4971477;28;20019;-80
2023/04/25 10:42:04;;;;;;;11.95;1.90;;;12.80;85.10;;;;;;4964727;28;20027;-78
2023/04/25 10:44:31;;;;;;;6.63;2.30;;;12.60;88.60;;;;;;4956983;28;20023;-78
2023/04/25 10:46:59;;;;;;;10.43;3.95;;;12.50;90.20;;;;;;4967033;28;20089;-79
2023/04/25 10:49:35;;;;;;;5.80;1.92;;;12.50;83.00;;;;;;4969496;28;20026;-79
2023/04/25 10:52:27;;;;;;;8.52;2.58;;;12.60;89.90;;;;;;4966485;28;20627;-79
2023/04/25 10:54:57;;;;;;;7.07;1.30;;;12.80;90.90;;;;;;4970163;28;20033;-80
2023/04/25 10:57:42;;;;;;;;;;;13.10;89.20;;;;;;4963830;28;20122;-79
2023/04/25 11:00:15;;;;;;;8.13;1.77;;;13.40;84.80;;;;;;4972143;28;19989;-78
2023/04/25 11:02:45;;;;;;;7.43;1.88;;;13.80;85.80;;;;;;4972309;28;20022;-81
2023/04/25 11:05:19;;;;;;;8.98;1.75;;;13.90;81.80;;;;;;4992486;28;20023;-79
2023/04/25 11:07:54;;;;;;;6.53;1.58;;;14.00;77.60;;;;;;4984975;28;20044;-78
2023/04/25 11:10:26;;;;;;;8.13;2.08;;;14.10;82.00;;;;;;4973174;28;20038;-79
2023/04/25 11:12:51;;;;;;;7.07;2.42;;;14.30;90.00;;;;;;4968509;28;20031;-80
2023/04/25 11:15:17;;;;;;;8.07;1.77;;;14.20;88.90;;;;;;4974452;28;20524;-79
2023/04/25 11:17:46;;;;;;;7.68;1.63;;;14.10;80.60;;;;;;4977505;28;20043;-78
2023/04/25 11:20:15;;;;;;;11.77;2.03;;;14.00;78.50;;;;;;4975058;28;20063;-78
2023/04/25 11:22:44;;;;;;;6.13;1.53;;;14.10;70.10;;;;;;4971385;28;20544;-78
2023/04/25 11:25:11;;;;;;;6.10;2.03;;;14.20;83.40;;;;;;4973187;28;20572;-80
2023/04/25 11:27:49;;;;;;;8.63;1.85;;;14.20;76.90;;;;;;4960828;28;20054;-80
2023/04/25 11:30:15;;;;;;;4.30;1.35;;;14.30;74.80;;;;;;4968092;28;20041;-79
2023/04/25 11:32:42;;;;;;;5.70;1.35;;;14.50;70.10;;;;;;4946991;28;20043;-80
2023/04/25 11:35:09;;;;;;;7.72;1.67;;;14.50;61.30;;;;;;4965196;28;20116;-79
2023/04/25 11:37:36;;;;;;;5.43;1.08;;;14.80;71.10;;;;;;4967788;28;20129;-82
2023/04/25 11:40:03;;;;;;;4.45;1.20;;;15.00;65.60;;;;;;4955812;28;20027;-81
2023/04/25 11:42:30;;;;;;;4.75;1.08;;;15.20;62.70;;;;;;4971849;28;20023;-80
2023/04/25 11:44:56;;;;;;;4.65;1.40;;;15.20;66.50;;;;;;4971939;28;20030;-81
2023/04/25 11:47:31;;;;;;;5.28;2.08;;;15.00;64.10;;;;;;4972671;28;20066;-80
2023/04/25 11:50:05;;;;;;;5.20;1.25;;;14.70;63.20;;;;;;4970573;28;20028;-80
2023/04/25 11:52:45;;;;;;;4.30;1.50;;;14.40;63.10;;;;;;4970052;28;20032;-80
2023/04/25 11:55:19;;;;;;;5.82;1.58;;;14.40;62.40;;;;;;4962578;28;20031;-80
2023/04/25 11:57:50;;;;;;;5.32;1.00;;;14.60;69.90;;;;;;4973043;28;20035;-80
2023/04/25 12:00:19;;;;;;;3.08;1.20;;;15.10;70.50;;;;;;4965463;28;20023;-79
2023/04/25 12:02:57;;;;;;;5.05;1.00;;;15.60;62.40;;;;;;4967932;28;20031;-80
2023/04/25 12:05:30;;;;;;;7.47;1.45;;;15.80;69.20;;;;;;4960289;28;20027;-81
2023/04/25 12:07:56;;;;;;;2.42;0.90;;;15.70;56.80;;;;;;4973686;28;20053;-79
2023/04/25 12:10:23;;;;;;;6.43;1.50;;;15.30;59.20;;;;;;4978412;28;20488;-79
2023/04/25 12:12:49;;;;;;;5.72;1.02;;;14.80;61.70;;;;;;4975811;28;20019;-81
2023/04/25 12:15:19;;;;;;;3.88;1.20;;;14.30;66.10;;;;;;4974752;28;20045;-81
2023/04/25 12:17:49;;;;;;;6.85;1.35;;;14.00;76.80;;;;;;4959556;28;20109;-79
2023/04/25 12:20:35;;;;;;;4.70;1.17;;;13.60;70.90;;;;;;4946418;28;20022;-82
2023/04/25 12:23:05;;;;;;;4.72;1.30;;;13.30;77.90;;;;;;4965771;28;20070;-80
2023/04/25 12:25:45;;;;;;;6.32;1.73;;;12.90;76.40;;;;;;4958010;28;20074;-79
2023/04/25 12:28:27;;;;;;;10.00;1.55;;;12.60;76.30;;;;;;4962400;28;20063;-78
2023/04/25 12:31:01;;;;;;;5.65;1.70;;;12.40;78.20;;;;;;4939925;28;20034;-79
2023/04/25 12:33:37;;;;;;;7.13;1.58;;;12.30;79.20;;;;;;4964040;28;20444;-78
2023/04/25 12:36:08;;;;;;;3.47;1.00;;;12.20;77.60;;;;;;4966050;28;20094;-80
2023/04/25 12:38:39;;;;;;;4.05;1.20;;;12.20;79.00;;;;;;4958288;28;20820;-80
2023/04/25 12:41:05;;;;;;;4.25;1.30;;;12.20;91.50;;;;;;4962674;28;20019;-79
2023/04/25 12:43:31;;;;;;;5.93;1.58;;;12.40;91.70;;;;;;4967525;28;20038;-80
2023/04/25 12:45:57;;;;;;;7.95;1.70;;;12.40;84.60;;;;;;4973485;28;20015;-80
2023/04/25 12:48:23;;;;;;;5.30;1.30;;;12.30;80.40;;;;;;4970524;28;20034;-80